createdAt,value
2019-05-17T00:01:53.867Z,94647.16
2019-05-17T00:04:26.859Z,94642.89
2019-05-17T00:06:57.743Z,94644.22
2019-05-17T00:09:29.787Z,94639.05
2019-05-17T00:12:00.913Z,94636.73
2019-05-17T00:14:32.019Z,94627.31
2019-05-17T00:17:03.110Z,94619.83
2019-05-17T00:19:34.177Z,94616.56
2019-05-17T00:22:07.384Z,94623.89
2019-05-17T00:24:38.146Z,94614.48
2019-05-17T00:27:09.499Z,94616.36
2019-05-17T00:29:40.603Z,94611.87
2019-05-17T00:32:11.626Z,94612.80
2019-05-17T00:34:42.628Z,94610.47
2019-05-17T00:37:13.766Z,94602.86
2019-05-17T00:39:47.015Z,94595.48
2019-05-17T00:42:17.646Z,94605.73
2019-05-17T00:44:48.646Z,94593.11
2019-05-17T00:47:19.706Z,94589.37
2019-05-17T00:49:50.819Z,94596.00
2019-05-17T00:52:21.869Z,94584.00
2019-05-17T00:54:52.838Z,94585.30
2019-05-17T00:57:23.859Z,94583.61
2019-05-17T00:59:56.537Z,94577.42
2019-05-17T01:02:27.688Z,94577.41
2019-05-17T01:04:59.868Z,94565.06
2019-05-17T01:07:32.046Z,94568.50
2019-05-17T01:10:03.152Z,94565.59
2019-05-17T01:12:36.451Z,94565.67
2019-05-17T01:15:08.144Z,94565.69
2019-05-17T01:17:39.429Z,94557.77
2019-05-17T01:20:11.438Z,94561.77
2019-05-17T01:22:42.562Z,94563.25
2019-05-17T01:25:13.740Z,94565.27
2019-05-17T01:27:47.211Z,94559.79
2019-05-17T01:30:18.388Z,94552.02
2019-05-17T01:32:49.385Z,94556.69
2019-05-17T01:35:20.512Z,94552.64
2019-05-17T01:37:51.505Z,94547.97
2019-05-17T01:40:22.559Z,94545.52
2019-05-17T01:42:53.635Z,94551.40
2019-05-17T01:45:26.809Z,94546.87
2019-05-17T01:47:57.511Z,94551.46
2019-05-17T01:50:28.560Z,94551.31
2019-05-17T01:52:59.843Z,94549.78
2019-05-17T01:55:30.897Z,94554.91
2019-05-17T01:58:01.988Z,94554.80
2019-05-17T02:00:33.071Z,94551.87
2019-05-17T02:03:06.790Z,94547.98
2019-05-17T02:05:37.592Z,94545.69
2019-05-17T02:08:09.870Z,94538.08
2019-05-17T02:10:40.972Z,94545.75
2019-05-17T02:13:11.954Z,94541.67
2019-05-17T02:15:43.261Z,94532.02
2019-05-17T02:18:14.265Z,94535.67
2019-05-17T02:20:46.456Z,94525.86
2019-05-17T02:23:17.660Z,94524.84
2019-05-17T02:25:48.810Z,94524.18
2019-05-17T02:28:21.393Z,94521.00
2019-05-17T02:30:53.107Z,94524.15
2019-05-17T02:33:25.138Z,94530.75
2019-05-17T02:35:56.161Z,94524.92
2019-05-17T02:38:27.159Z,94519.06
2019-05-17T02:40:58.214Z,94519.56
2019-05-17T02:43:33.108Z,94516.09
2019-05-17T02:46:03.816Z,94513.50
2019-05-17T02:48:34.835Z,94516.02
2019-05-17T02:51:05.960Z,94518.67
2019-05-17T02:53:36.979Z,94520.02
2019-05-17T02:56:08.042Z,94519.47
2019-05-17T02:58:39.114Z,94519.14
2019-05-17T03:01:12.679Z,94519.23
2019-05-17T03:03:43.696Z,94513.91
2019-05-17T03:06:14.937Z,94519.03
2019-05-17T03:08:45.928Z,94507.70
2019-05-17T03:11:17.008Z,94512.48
2019-05-17T03:13:48.170Z,94509.01
2019-05-17T03:16:19.215Z,94510.86
2019-05-17T03:18:53.010Z,94513.23
2019-05-17T03:21:23.880Z,94508.88
2019-05-17T03:23:54.877Z,94510.42
2019-05-17T03:26:25.891Z,94507.52
2019-05-17T03:28:56.898Z,94503.38
2019-05-17T03:31:34.502Z,94505.97
2019-05-17T03:34:06.810Z,94505.89
2019-05-17T03:36:36.329Z,94502.02
2019-05-17T03:39:07.792Z,94502.28
2019-05-17T03:41:38.804Z,94495.13
2019-05-17T03:44:13.269Z,94506.37
2019-05-17T03:46:42.759Z,94497.22
2019-05-17T03:49:13.914Z,94495.77
2019-05-17T03:51:45.048Z,94498.00
2019-05-17T03:54:16.051Z,94495.34
2019-05-17T03:56:47.485Z,94500.34
2019-05-17T03:59:18.493Z,94498.18
2019-05-17T04:01:52.491Z,94497.29
2019-05-17T04:04:23.001Z,94497.34
2019-05-17T04:06:54.338Z,94496.76
2019-05-17T04:09:25.318Z,94489.64
2019-05-17T04:11:57.470Z,94492.83
2019-05-17T04:14:28.572Z,94486.80
2019-05-17T04:17:02.863Z,94492.13
2019-05-17T04:19:33.705Z,94497.06
2019-05-17T04:22:05.189Z,94492.71
2019-05-17T04:24:36.331Z,94488.72
2019-05-17T04:27:07.386Z,94489.58
2019-05-17T04:29:38.751Z,94482.43
2019-05-17T04:32:12.669Z,94480.59
2019-05-17T04:34:43.733Z,94483.94
2019-05-17T04:37:15.018Z,94488.61
2019-05-17T04:39:46.113Z,94495.75
2019-05-17T04:42:17.284Z,94497.39
2019-05-17T04:44:48.297Z,94492.80
2019-05-17T04:47:22.700Z,94492.30
2019-05-17T04:49:53.681Z,94493.34
2019-05-17T04:52:25.109Z,94488.61
2019-05-17T04:54:56.163Z,94490.42
2019-05-17T04:57:27.144Z,94490.66
2019-05-17T04:59:59.577Z,94486.87
2019-05-17T05:02:33.096Z,94487.59
2019-05-17T05:05:03.733Z,94480.77
2019-05-17T05:07:34.894Z,94477.80
2019-05-17T05:10:06.791Z,94484.48
2019-05-17T05:12:37.751Z,94484.13
2019-05-17T05:15:12.053Z,94479.39
2019-05-17T05:17:42.957Z,94484.23
2019-05-17T05:20:14.271Z,94477.00
2019-05-17T05:22:45.353Z,94484.18
2019-05-17T05:25:16.425Z,94488.95
2019-05-17T05:27:47.406Z,94487.88
2019-05-17T05:30:18.541Z,94485.72
2019-05-17T05:32:49.524Z,94482.44
2019-05-17T05:35:22.456Z,94470.17
2019-05-17T05:37:54.410Z,94472.98
2019-05-17T05:40:25.402Z,94470.73
2019-05-17T05:42:56.391Z,94472.03
2019-05-17T05:45:27.816Z,94469.16
2019-05-17T05:47:58.894Z,94465.63
2019-05-17T05:50:32.297Z,94472.55
2019-05-17T05:53:02.694Z,94466.75
2019-05-17T05:55:33.906Z,94464.48
2019-05-17T05:58:05.034Z,94464.98
2019-05-17T06:00:36.264Z,94462.42
2019-05-17T06:03:07.334Z,94460.69
2019-05-17T06:05:38.720Z,94456.21
2019-05-17T06:08:11.953Z,94453.61
2019-05-17T06:10:43.029Z,94451.41
2019-05-17T06:13:14.329Z,94455.34
2019-05-17T06:15:45.457Z,94453.61
2019-05-17T06:18:16.558Z,94460.52
2019-05-17T06:20:47.715Z,94465.98
2019-05-17T06:23:18.776Z,94464.77
2019-05-17T06:25:52.173Z,94462.30
2019-05-17T06:28:23.757Z,94462.95
2019-05-17T06:30:54.845Z,94459.23
2019-05-17T06:33:30.921Z,94460.34
2019-05-17T06:35:58.782Z,94456.87
2019-05-17T06:38:29.895Z,94449.63
2019-05-17T06:41:01.739Z,94445.81
2019-05-17T06:43:32.797Z,94448.75
2019-05-17T06:46:04.076Z,94443.94
2019-05-17T06:48:35.199Z,94437.37
2019-05-17T06:51:06.389Z,94438.23
2019-05-17T06:53:37.391Z,94434.18
2019-05-17T06:56:08.624Z,94426.00
2019-05-17T06:58:39.762Z,94420.86
2019-05-17T07:01:10.909Z,94413.83
2019-05-17T07:03:41.913Z,94417.53
2019-05-17T07:06:14.826Z,94409.45
2019-05-17T07:08:45.839Z,94412.95
2019-05-17T07:11:17.000Z,94399.58
2019-05-17T07:13:49.581Z,94400.95
2019-05-17T07:16:20.837Z,94390.67
2019-05-17T07:18:51.926Z,94390.84
2019-05-17T07:21:23.052Z,94392.61
2019-05-17T07:23:54.164Z,94394.14
2019-05-17T07:26:25.499Z,94389.40
2019-05-17T07:28:56.678Z,94380.12
2019-05-17T07:31:29.772Z,94371.47
2019-05-17T07:34:00.604Z,94364.55
2019-05-17T07:36:31.646Z,94363.00
2019-05-17T07:39:02.958Z,94362.63
2019-05-17T07:41:34.263Z,94352.84
2019-05-17T07:44:05.434Z,94346.84
2019-05-17T07:46:36.580Z,94355.27
2019-05-17T07:49:07.619Z,94345.88
2019-05-17T07:51:39.623Z,94340.13
2019-05-17T07:54:10.815Z,94346.17
2019-05-17T07:56:42.905Z,94352.78
2019-05-17T07:59:14.095Z,94353.59
2019-05-17T08:01:45.116Z,94345.63
2019-05-17T08:04:16.213Z,94343.83
2019-05-17T08:06:47.292Z,94346.55
2019-05-17T08:09:20.353Z,94335.61
2019-05-17T08:11:51.146Z,94332.42
2019-05-17T08:14:29.873Z,94330.08
2019-05-17T08:16:55.331Z,94334.56
2019-05-17T08:19:26.476Z,94333.78
2019-05-17T08:21:59.574Z,94326.17
2019-05-17T08:24:30.429Z,94338.70
2019-05-17T08:27:01.634Z,94341.27
2019-05-17T08:29:32.679Z,94338.50
2019-05-17T08:32:03.839Z,94339.23
2019-05-17T08:34:34.940Z,94337.34
2019-05-17T08:37:06.113Z,94337.92
2019-05-17T08:39:39.800Z,94333.43
2019-05-17T08:42:09.977Z,94331.91
2019-05-17T08:44:42.332Z,94333.73
2019-05-17T08:47:14.378Z,94329.54
2019-05-17T08:49:45.457Z,94324.33
2019-05-17T08:52:16.561Z,94318.56
2019-05-17T08:54:49.597Z,94314.73
2019-05-17T08:57:20.896Z,94313.13
2019-05-17T08:59:51.939Z,94310.88
2019-05-17T09:02:23.011Z,94314.84
2019-05-17T09:04:54.072Z,94307.80
2019-05-17T09:07:25.101Z,94302.36
2019-05-17T09:09:56.183Z,94306.16
2019-05-17T09:12:29.858Z,94305.66
2019-05-17T09:15:00.579Z,94302.48
2019-05-17T09:17:31.852Z,94303.89
2019-05-17T09:20:02.874Z,94297.86
2019-05-17T09:22:33.888Z,94297.30
2019-05-17T09:25:06.864Z,94294.03
2019-05-17T09:27:39.755Z,94292.75
2019-05-17T09:30:11.922Z,94288.30
2019-05-17T09:32:43.024Z,94281.22
2019-05-17T09:35:14.200Z,94287.20
2019-05-17T09:37:45.335Z,94284.70
2019-05-17T09:40:16.572Z,94279.48
2019-05-17T09:42:49.761Z,94285.41
2019-05-17T09:45:20.877Z,94272.40
2019-05-17T09:47:51.911Z,94268.22
2019-05-17T09:50:23.081Z,94272.86
2019-05-17T09:52:54.148Z,94267.56
2019-05-17T09:55:25.320Z,94270.42
2019-05-17T09:57:56.352Z,94271.26
2019-05-17T10:00:29.690Z,94262.96
2019-05-17T10:03:00.521Z,94258.08
2019-05-17T10:05:31.684Z,94259.89
2019-05-17T10:08:02.736Z,94260.00
2019-05-17T10:10:33.814Z,94245.17
2019-05-17T10:13:05.026Z,94246.87
2019-05-17T10:15:36.091Z,94247.13
2019-05-17T10:18:07.212Z,94238.63
2019-05-17T10:20:39.910Z,94247.00
2019-05-17T10:23:11.466Z,94237.98
2019-05-17T10:25:42.531Z,94229.51
2019-05-17T10:28:13.634Z,94233.78
2019-05-17T10:30:45.726Z,94221.75
2019-05-17T10:33:16.770Z,94231.28
2019-05-17T10:35:49.663Z,94223.84
2019-05-17T10:38:20.691Z,94230.80
2019-05-17T10:40:51.702Z,94227.68
2019-05-17T10:43:22.746Z,94222.17
2019-05-17T10:45:53.746Z,94225.89
2019-05-17T10:48:24.847Z,94235.10
2019-05-17T10:50:55.841Z,94226.84
2019-05-17T10:53:29.574Z,94226.84
2019-05-17T10:56:00.792Z,94218.15
2019-05-17T10:58:32.137Z,94214.94
2019-05-17T11:01:03.305Z,94209.92
2019-05-17T11:03:34.598Z,94214.41
2019-05-17T11:06:05.856Z,94202.98
2019-05-17T11:08:37.381Z,94203.70
2019-05-17T11:11:10.220Z,94199.22
2019-05-17T11:13:41.478Z,94199.00
2019-05-17T11:16:12.557Z,94203.09
2019-05-17T11:18:43.720Z,94199.25
2019-05-17T11:21:14.965Z,94202.14
2019-05-17T11:23:46.096Z,94198.67
2019-05-17T11:26:17.272Z,94198.20
2019-05-17T11:28:49.618Z,94197.88
2019-05-17T11:31:20.780Z,94200.03
2019-05-17T11:33:51.834Z,94195.20
2019-05-17T11:36:22.938Z,94201.75
2019-05-17T11:38:54.044Z,94199.58
2019-05-17T11:41:25.268Z,94195.35
2019-05-17T11:43:56.285Z,94201.02
2019-05-17T11:46:35.812Z,94192.39
2019-05-17T11:49:00.190Z,94190.47
2019-05-17T11:51:31.196Z,94184.05
2019-05-17T11:54:02.300Z,94183.97
2019-05-17T11:56:33.380Z,94181.44
2019-05-17T11:59:04.662Z,94182.72
2019-05-17T12:01:35.776Z,94179.65
2019-05-17T12:04:06.986Z,94180.97
2019-05-17T12:06:38.037Z,94172.19
2019-05-17T12:09:09.535Z,94175.64
2019-05-17T12:11:40.531Z,94175.55
2019-05-17T12:14:11.542Z,94181.35
2019-05-17T12:16:42.536Z,94174.16
2019-05-17T12:19:13.580Z,94162.67
2019-05-17T12:21:44.604Z,94169.20
2019-05-17T12:24:15.731Z,94161.29
2019-05-17T12:26:47.558Z,94154.64
2019-05-17T12:29:18.735Z,94150.75
2019-05-17T12:31:49.957Z,94161.03
2019-05-17T12:34:21.057Z,94158.85
2019-05-17T12:36:53.122Z,94155.41
2019-05-17T12:39:25.198Z,94153.84
2019-05-17T12:41:56.375Z,94153.63
2019-05-17T12:44:27.435Z,94150.17
2019-05-17T12:46:58.444Z,94141.80
2019-05-17T12:49:29.549Z,94142.56
2019-05-17T12:52:00.581Z,94139.22
2019-05-17T12:54:31.640Z,94143.37
2019-05-17T12:57:04.773Z,94134.68
2019-05-17T12:59:35.569Z,94142.03
2019-05-17T13:02:06.690Z,94140.19
2019-05-17T13:04:39.573Z,94134.44
2019-05-17T13:07:10.637Z,94133.23
2019-05-17T13:09:41.904Z,94132.03
2019-05-17T13:12:12.909Z,94136.33
2019-05-17T13:14:44.115Z,94135.42
2019-05-17T13:17:15.117Z,94124.89
2019-05-17T13:19:46.641Z,94126.02
2019-05-17T13:22:17.781Z,94121.60
2019-05-17T13:24:48.900Z,94123.63
2019-05-17T13:27:19.991Z,94123.24
2019-05-17T13:29:51.053Z,94133.27
2019-05-17T13:32:22.043Z,94125.47
2019-05-17T13:34:53.033Z,94117.55
2019-05-17T13:37:24.045Z,94124.87
2019-05-17T13:39:55.085Z,94125.37
2019-05-17T13:42:26.112Z,94119.20
2019-05-17T13:44:57.251Z,94123.16
2019-05-17T13:47:28.231Z,94109.77
2019-05-17T13:49:59.276Z,94119.92
2019-05-17T13:52:31.381Z,94112.95
2019-05-17T13:55:02.395Z,94112.27
2019-05-17T13:57:33.758Z,94115.53
2019-05-17T14:00:05.604Z,94113.46
2019-05-17T14:02:37.275Z,94118.23
2019-05-17T14:05:09.967Z,94111.29
2019-05-17T14:07:40.957Z,94103.48
2019-05-17T14:10:26.230Z,94108.07
2019-05-17T14:12:45.798Z,94101.45
2019-05-17T14:15:17.684Z,94107.83
2019-05-17T14:17:48.785Z,94107.77
2019-05-17T14:20:20.151Z,94101.06
2019-05-17T14:22:51.361Z,94106.03
2019-05-17T14:25:22.531Z,94109.38
2019-05-17T14:27:54.040Z,94110.73
2019-05-17T14:30:25.220Z,94113.78
2019-05-17T14:32:56.283Z,94115.63
2019-05-17T14:35:27.630Z,94118.45
2019-05-17T14:37:59.761Z,94122.17
2019-05-17T14:41:04.301Z,94112.02
2019-05-17T14:43:03.715Z,94114.92
2019-05-17T14:45:34.828Z,94113.03
2019-05-17T14:48:05.953Z,94111.42
2019-05-17T14:50:36.976Z,94109.89
2019-05-17T14:53:08.097Z,94114.12
2019-05-17T14:55:39.131Z,94111.93
2019-05-17T14:58:10.231Z,94111.19
2019-05-17T15:00:41.247Z,94111.86
2019-05-17T15:03:12.249Z,94113.16
2019-05-17T15:05:43.269Z,94115.20
2019-05-17T15:08:14.322Z,94113.66
2019-05-17T15:10:45.466Z,94116.13
2019-05-17T15:13:16.541Z,94109.41
2019-05-17T15:15:47.891Z,94108.75
2019-05-17T15:18:19.082Z,94106.86
2019-05-17T15:20:50.097Z,94109.02
2019-05-17T15:23:21.178Z,94105.55
2019-05-17T15:25:52.455Z,94115.70
2019-05-17T15:28:23.476Z,94116.59
2019-05-17T15:30:54.665Z,94107.86
2019-05-17T15:33:25.660Z,94107.42
2019-05-17T15:35:56.869Z,94112.73
2019-05-17T15:38:27.911Z,94110.22
2019-05-17T15:40:59.053Z,94105.67
2019-05-17T15:43:30.108Z,94109.72
2019-05-17T15:46:01.279Z,94106.70
2019-05-17T15:48:32.277Z,94100.58
2019-05-17T15:51:03.759Z,94103.03
2019-05-17T15:53:35.120Z,94101.05
2019-05-17T15:56:06.324Z,94095.78
2019-05-17T15:58:37.383Z,94092.91
2019-05-17T16:01:08.545Z,94093.66
2019-05-17T16:03:39.701Z,94089.20
2019-05-17T16:06:10.895Z,94088.98
2019-05-17T16:08:41.978Z,94088.65
2019-05-17T16:11:13.113Z,94082.25
2019-05-17T16:13:44.230Z,94088.70
2019-05-17T16:16:15.489Z,94085.63
2019-05-17T16:18:46.470Z,94083.05
2019-05-17T16:21:17.505Z,94083.28
2019-05-17T16:23:48.528Z,94080.48
2019-05-17T16:26:20.629Z,94078.38
2019-05-17T16:28:51.681Z,94078.45
2019-05-17T16:31:22.859Z,94074.66
2019-05-17T16:33:53.854Z,94078.97
2019-05-17T16:36:24.890Z,94075.22
2019-05-17T16:38:55.924Z,94070.34
2019-05-17T16:41:27.042Z,94072.56
2019-05-17T16:43:58.094Z,94075.06
2019-05-17T16:46:29.133Z,94068.65
2019-05-17T16:49:00.282Z,94070.20
2019-05-17T16:51:31.395Z,94072.63
2019-05-17T16:54:02.616Z,94071.50
2019-05-17T16:56:33.711Z,94072.84
2019-05-17T16:59:04.908Z,94077.16
2019-05-17T17:01:36.112Z,94074.73
2019-05-17T17:04:07.534Z,94075.14
2019-05-17T17:06:39.116Z,94074.52
2019-05-17T17:09:10.367Z,94073.04
2019-05-17T17:11:41.550Z,94075.45
2019-05-17T17:14:12.654Z,94073.42
2019-05-17T17:16:43.814Z,94063.47
2019-05-17T17:19:14.842Z,94068.39
2019-05-17T17:21:46.007Z,94063.80
2019-05-17T17:24:16.998Z,94065.93
2019-05-17T17:26:48.166Z,94065.77
2019-05-17T17:29:19.677Z,94075.03
2019-05-17T17:31:50.746Z,94077.08
2019-05-17T17:34:22.913Z,94070.92
2019-05-17T17:36:54.091Z,94072.41
2019-05-17T17:39:25.199Z,94078.09
2019-05-17T17:41:56.236Z,94080.59
2019-05-17T17:44:27.302Z,94084.00
2019-05-17T17:46:58.338Z,94084.33
2019-05-17T17:49:29.405Z,94079.84
2019-05-17T17:52:00.587Z,94081.15
2019-05-17T17:54:31.943Z,94081.02
2019-05-17T17:57:03.039Z,94079.08
2019-05-17T17:59:34.211Z,94077.03
2019-05-17T18:02:05.433Z,94077.45
2019-05-17T18:04:36.498Z,94081.41
2019-05-17T18:07:07.697Z,94076.89
2019-05-17T18:09:38.781Z,94077.75
2019-05-17T18:12:09.909Z,94077.36
2019-05-17T18:14:40.966Z,94073.83
2019-05-17T18:17:12.001Z,94080.40
2019-05-17T18:19:43.092Z,94080.92
2019-05-17T18:22:14.286Z,94081.15
2019-05-17T18:24:45.446Z,94083.73
2019-05-17T18:27:16.743Z,94086.86
2019-05-17T18:29:48.895Z,94088.66
2019-05-17T18:32:20.018Z,94095.99
2019-05-17T18:34:51.212Z,94099.31
2019-05-17T18:37:22.363Z,94099.64
2019-05-17T18:39:53.364Z,94107.89
2019-05-17T18:42:24.485Z,94103.84
2019-05-17T18:44:55.615Z,94107.81
2019-05-17T18:47:26.723Z,94104.47
2019-05-17T18:49:57.779Z,94103.77
2019-05-17T18:52:29.058Z,94107.21
2019-05-17T18:55:00.051Z,94105.97
2019-05-17T18:57:31.486Z,94108.03
2019-05-17T19:00:02.511Z,94107.66
2019-05-17T19:02:34.142Z,94113.61
2019-05-17T19:05:06.082Z,94116.47
2019-05-17T19:07:37.115Z,94116.55
2019-05-17T19:10:10.741Z,94112.21
2019-05-17T19:12:41.787Z,94119.61
2019-05-17T19:15:13.503Z,94119.59
2019-05-17T19:17:44.583Z,94121.69
2019-05-17T19:20:16.122Z,94125.54
2019-05-17T19:22:47.219Z,94124.43
2019-05-17T19:25:18.755Z,94125.73
2019-05-17T19:27:50.009Z,94125.46
2019-05-17T19:30:21.925Z,94124.53
2019-05-17T19:32:52.950Z,94125.46
2019-05-17T19:35:25.204Z,94136.34
2019-05-17T19:37:56.240Z,94129.47
2019-05-17T19:40:27.393Z,94130.18
2019-05-17T19:42:58.472Z,94127.54
2019-05-17T19:45:29.717Z,94131.16
2019-05-17T19:48:01.101Z,94128.44
2019-05-17T19:50:32.202Z,94131.17
2019-05-17T19:53:03.391Z,94133.58
2019-05-17T19:55:34.478Z,94128.72
2019-05-17T19:58:05.700Z,94130.27
2019-05-17T20:00:36.990Z,94135.91
2019-05-17T20:03:08.273Z,94132.47
2019-05-17T20:05:39.290Z,94135.32
2019-05-17T20:08:10.307Z,94135.72
2019-05-17T20:10:41.307Z,94131.87
2019-05-17T20:13:12.303Z,94133.22
2019-05-17T20:15:43.470Z,94135.11
2019-05-17T20:18:14.586Z,94129.58
2019-05-17T20:20:45.614Z,94132.33
2019-05-17T20:23:16.718Z,94132.48
2019-05-17T20:25:47.798Z,94132.20
2019-05-17T20:28:19.100Z,94132.75
2019-05-17T20:30:50.107Z,94136.66
2019-05-17T20:33:21.470Z,94138.83
2019-05-17T20:35:52.793Z,94138.42
2019-05-17T20:38:25.231Z,94137.27
2019-05-17T20:40:56.230Z,94135.15
2019-05-17T20:43:27.360Z,94140.37
2019-05-17T20:45:58.445Z,94136.73
2019-05-17T20:48:29.418Z,94145.14
2019-05-17T20:51:00.498Z,94133.47
2019-05-17T20:53:31.889Z,94138.56
2019-05-17T20:56:02.981Z,94138.85
2019-05-17T20:58:34.023Z,94137.36
2019-05-17T21:01:05.303Z,94140.81
2019-05-17T21:03:36.481Z,94134.27
2019-05-17T21:06:07.584Z,94135.45
2019-05-17T21:08:46.116Z,94133.07
2019-05-17T21:11:11.315Z,94138.77
2019-05-17T21:13:42.433Z,94139.78
2019-05-17T21:16:13.447Z,94139.02
2019-05-17T21:18:44.860Z,94134.36
2019-05-17T21:21:15.930Z,94136.14
2019-05-17T21:23:46.950Z,94134.20
2019-05-17T21:26:18.077Z,94144.80
2019-05-17T21:28:49.228Z,94143.50
2019-05-17T21:31:20.317Z,94145.30
2019-05-17T21:33:51.333Z,94139.77
2019-05-17T21:36:22.517Z,94143.61
2019-05-17T21:38:53.655Z,94145.18
2019-05-17T21:41:24.692Z,94147.23
2019-05-17T21:43:55.738Z,94141.30
2019-05-17T21:46:26.899Z,94140.81
2019-05-17T21:48:57.976Z,94146.11
2019-05-17T21:51:28.981Z,94150.77
2019-05-17T21:54:00.194Z,94145.84
2019-05-17T21:56:31.271Z,94153.44
2019-05-17T21:59:02.446Z,94149.76
2019-05-17T22:01:35.212Z,94155.31
2019-05-17T22:04:06.343Z,94159.05
2019-05-17T22:06:38.487Z,94156.63
2019-05-17T22:09:09.987Z,94159.41
2019-05-17T22:11:44.614Z,94157.69
2019-05-17T22:14:15.496Z,94166.12
2019-05-17T22:16:46.665Z,94159.86
2019-05-17T22:19:17.759Z,94168.04
2019-05-17T22:21:48.749Z,94174.39
2019-05-17T22:24:19.779Z,94176.94
2019-05-17T22:26:50.884Z,94174.88
2019-05-17T22:29:21.954Z,94175.11
2019-05-17T22:31:53.177Z,94176.59
2019-05-17T22:34:24.318Z,94176.30
2019-05-17T22:36:55.413Z,94179.22
2019-05-17T22:39:26.521Z,94178.30
2019-05-17T22:41:57.524Z,94177.55
2019-05-17T22:44:28.620Z,94173.66
2019-05-17T22:46:59.677Z,94182.00
2019-05-17T22:49:31.876Z,94177.39
2019-05-17T22:52:03.092Z,94179.16
2019-05-17T22:54:34.131Z,94176.37
2019-05-17T22:57:05.161Z,94173.65
2019-05-17T22:59:36.238Z,94164.63
2019-05-17T23:02:07.443Z,94176.55
2019-05-17T23:04:38.476Z,94172.94
2019-05-17T23:07:09.461Z,94175.70
2019-05-17T23:09:40.504Z,94173.76
2019-05-17T23:12:11.524Z,94176.35
2019-05-17T23:14:42.652Z,94167.84
2019-05-17T23:17:13.658Z,94166.05
2019-05-17T23:19:44.765Z,94167.81
2019-05-17T23:22:15.892Z,94167.99
2019-05-17T23:24:47.055Z,94176.09
2019-05-17T23:27:19.224Z,94169.83
2019-05-17T23:29:50.761Z,94168.56
2019-05-17T23:32:21.957Z,94171.05
2019-05-17T23:34:53.004Z,94164.95
2019-05-17T23:37:24.081Z,94165.92
2019-05-17T23:39:55.217Z,94169.05
2019-05-17T23:42:26.273Z,94165.76
2019-05-17T23:44:57.388Z,94171.19
2019-05-17T23:47:28.476Z,94171.92
2019-05-17T23:49:59.527Z,94168.02
2019-05-17T23:52:30.529Z,94166.02
2019-05-17T23:55:01.590Z,94168.31
2019-05-17T23:57:32.680Z,94170.48
